sensor_id;sensor_type;location;lat;lon;timestamp;P1;durP1;ratioP1;P2;durP2;ratioP2
44048;SDS011;29717;47.028;15.470;2024-03-02T00:00:14;63.80;;;41.70;;
44048;SDS011;29717;47.028;15.470;2024-03-02T00:02:41;66.60;;;44.40;;
44048;SDS011;29717;47.028;15.470;2024-03-02T00:05:07;67.32;;;44.47;;
44048;SDS011;29717;47.028;15.470;2024-03-02T00:07:38;64.80;;;44.03;;
44048;SDS011;29717;47.028;15.470;2024-03-02T00:10:07;65.03;;;43.50;;
44048;SDS011;29717;47.028;15.470;2024-03-02T00:12:35;64.50;;;42.15;;
44048;SDS011;29717;47.028;15.470;2024-03-02T00:15:03;66.60;;;42.90;;
44048;SDS011;29717;47.028;15.470;2024-03-02T00:17:30;67.55;;;45.30;;
44048;SDS011;29717;47.028;15.470;2024-03-02T00:19:56;66.80;;;44.35;;
44048;SDS011;29717;47.028;15.470;2024-03-02T00:22:23;66.50;;;45.75;;
44048;SDS011;29717;47.028;15.470;2024-03-02T00:24:51;71.40;;;45.85;;
44048;SDS011;29717;47.028;15.470;2024-03-02T00:27:18;63.50;;;42.78;;
44048;SDS011;29717;47.028;15.470;2024-03-02T00:29:46;62.92;;;43.92;;
44048;SDS011;29717;47.028;15.470;2024-03-02T00:32:13;69.35;;;44.22;;
44048;SDS011;29717;47.028;15.470;2024-03-02T00:34:41;62.10;;;43.03;;
44048;SDS011;29717;47.028;15.470;2024-03-02T00:37:08;60.65;;;42.92;;
44048;SDS011;29717;47.028;15.470;2024-03-02T00:39:37;63.42;;;43.00;;
44048;SDS011;29717;47.028;15.470;2024-03-02T00:42:05;61.17;;;43.55;;
44048;SDS011;29717;47.028;15.470;2024-03-02T00:44:32;60.58;;;42.25;;
44048;SDS011;29717;47.028;15.470;2024-03-02T00:47:01;60.58;;;42.50;;
44048;SDS011;29717;47.028;15.470;2024-03-02T00:49:28;60.65;;;43.20;;
44048;SDS011;29717;47.028;15.470;2024-03-02T00:51:55;56.33;;;39.97;;
44048;SDS011;29717;47.028;15.470;2024-03-02T00:54:22;60.70;;;40.85;;
44048;SDS011;29717;47.028;15.470;2024-03-02T00:56:50;61.40;;;41.83;;
44048;SDS011;29717;47.028;15.470;2024-03-02T00:59:18;58.05;;;41.50;;
44048;SDS011;29717;47.028;15.470;2024-03-02T01:01:45;63.28;;;42.40;;
44048;SDS011;29717;47.028;15.470;2024-03-02T01:04:11;64.28;;;43.08;;
44048;SDS011;29717;47.028;15.470;2024-03-02T01:06:39;66.57;;;44.25;;
44048;SDS011;29717;47.028;15.470;2024-03-02T01:09:06;67.97;;;42.72;;
44048;SDS011;29717;47.028;15.470;2024-03-02T01:11:33;63.95;;;42.63;;
44048;SDS011;29717;47.028;15.470;2024-03-02T01:13:59;60.28;;;41.78;;
44048;SDS011;29717;47.028;15.470;2024-03-02T01:16:27;61.47;;;42.20;;
44048;SDS011;29717;47.028;15.470;2024-03-02T01:18:54;58.50;;;41.83;;
44048;SDS011;29717;47.028;15.470;2024-03-02T01:21:21;58.40;;;38.25;;
44048;SDS011;29717;47.028;15.470;2024-03-02T01:23:48;64.13;;;41.00;;
44048;SDS011;29717;47.028;15.470;2024-03-02T01:26:14;62.47;;;39.92;;
44048;SDS011;29717;47.028;15.470;2024-03-02T01:28:41;61.50;;;39.28;;
44048;SDS011;29717;47.028;15.470;2024-03-02T01:31:08;64.68;;;40.78;;
44048;SDS011;29717;47.028;15.470;2024-03-02T01:33:36;58.88;;;40.60;;
44048;SDS011;29717;47.028;15.470;2024-03-02T01:36:03;62.17;;;40.83;;
44048;SDS011;29717;47.028;15.470;2024-03-02T01:38:30;60.35;;;40.45;;
44048;SDS011;29717;47.028;15.470;2024-03-02T01:40:57;59.47;;;38.58;;
44048;SDS011;29717;47.028;15.470;2024-03-02T01:43:23;60.00;;;40.15;;
44048;SDS011;29717;47.028;15.470;2024-03-02T01:45:51;57.97;;;38.17;;
44048;SDS011;29717;47.028;15.470;2024-03-02T01:48:18;62.33;;;40.28;;
44048;SDS011;29717;47.028;15.470;2024-03-02T01:50:47;60.42;;;39.35;;
44048;SDS011;29717;47.028;15.470;2024-03-02T01:53:14;59.65;;;40.15;;
44048;SDS011;29717;47.028;15.470;2024-03-02T01:55:40;56.17;;;36.50;;
44048;SDS011;29717;47.028;15.470;2024-03-02T01:58:07;52.33;;;33.97;;
44048;SDS011;29717;47.028;15.470;2024-03-02T02:00:34;52.60;;;35.20;;
44048;SDS011;29717;47.028;15.470;2024-03-02T02:03:00;53.17;;;35.05;;
44048;SDS011;29717;47.028;15.470;2024-03-02T02:05:27;52.25;;;35.33;;
44048;SDS011;29717;47.028;15.470;2024-03-02T02:07:55;51.95;;;35.17;;
44048;SDS011;29717;47.028;15.470;2024-03-02T02:10:23;56.00;;;34.47;;
44048;SDS011;29717;47.028;15.470;2024-03-02T02:12:50;46.60;;;33.22;;
44048;SDS011;29717;47.028;15.470;2024-03-02T02:15:23;46.22;;;33.45;;
44048;SDS011;29717;47.028;15.470;2024-03-02T02:17:50;50.17;;;34.20;;
44048;SDS011;29717;47.028;15.470;2024-03-02T02:20:17;47.63;;;33.53;;
44048;SDS011;29717;47.028;15.470;2024-03-02T02:25:27;50.08;;;33.92;;
44048;SDS011;29717;47.028;15.470;2024-03-02T02:27:54;49.40;;;32.65;;
44048;SDS011;29717;47.028;15.470;2024-03-02T02:30:23;49.17;;;33.50;;
44048;SDS011;29717;47.028;15.470;2024-03-02T02:32:50;47.75;;;33.00;;
44048;SDS011;29717;47.028;15.470;2024-03-02T02:35:16;49.30;;;35.00;;
44048;SDS011;29717;47.028;15.470;2024-03-02T02:37:43;52.90;;;35.33;;
44048;SDS011;29717;47.028;15.470;2024-03-02T02:40:11;56.33;;;39.65;;
44048;SDS011;29717;47.028;15.470;2024-03-02T02:42:40;60.10;;;39.45;;
44048;SDS011;29717;47.028;15.470;2024-03-02T02:45:07;49.90;;;35.38;;
44048;SDS011;29717;47.028;15.470;2024-03-02T02:47:33;60.67;;;38.80;;
44048;SDS011;29717;47.028;15.470;2024-03-02T02:50:01;52.83;;;36.17;;
44048;SDS011;29717;47.028;15.470;2024-03-02T02:52:32;53.65;;;36.60;;
44048;SDS011;29717;47.028;15.470;2024-03-02T02:55:02;49.03;;;35.58;;
44048;SDS011;29717;47.028;15.470;2024-03-02T02:57:29;50.15;;;34.70;;
44048;SDS011;29717;47.028;15.470;2024-03-02T03:00:01;54.03;;;34.60;;
44048;SDS011;29717;47.028;15.470;2024-03-02T03:02:35;48.45;;;31.83;;
44048;SDS011;29717;47.028;15.470;2024-03-02T03:05:01;46.38;;;31.42;;
44048;SDS011;29717;47.028;15.470;2024-03-02T03:07:28;44.42;;;30.25;;
44048;SDS011;29717;47.028;15.470;2024-03-02T03:09:55;48.47;;;32.30;;
44048;SDS011;29717;47.028;15.470;2024-03-02T03:12:21;51.10;;;32.60;;
44048;SDS011;29717;47.028;15.470;2024-03-02T03:14:48;54.33;;;34.72;;
44048;SDS011;29717;47.028;15.470;2024-03-02T03:17:16;53.08;;;33.28;;
44048;SDS011;29717;47.028;15.470;2024-03-02T03:19:44;47.78;;;31.63;;
44048;SDS011;29717;47.028;15.470;2024-03-02T03:22:11;52.10;;;33.58;;
44048;SDS011;29717;47.028;15.470;2024-03-02T03:24:38;47.88;;;32.85;;
44048;SDS011;29717;47.028;15.470;2024-03-02T03:27:05;54.58;;;35.65;;
44048;SDS011;29717;47.028;15.470;2024-03-02T03:29:32;53.05;;;34.13;;
44048;SDS011;29717;47.028;15.470;2024-03-02T03:31:58;53.17;;;34.75;;
44048;SDS011;29717;47.028;15.470;2024-03-02T03:34:27;50.10;;;33.05;;
44048;SDS011;29717;47.028;15.470;2024-03-02T03:36:54;50.95;;;33.00;;
44048;SDS011;29717;47.028;15.470;2024-03-02T03:39:21;52.50;;;34.78;;
44048;SDS011;29717;47.028;15.470;2024-03-02T03:41:47;49.95;;;34.00;;
44048;SDS011;29717;47.028;15.470;2024-03-02T03:44:14;53.88;;;35.30;;
44048;SDS011;29717;47.028;15.470;2024-03-02T03:46:41;52.08;;;33.20;;
44048;SDS011;29717;47.028;15.470;2024-03-02T03:49:07;56.50;;;32.47;;
44048;SDS011;29717;47.028;15.470;2024-03-02T03:51:35;46.17;;;31.60;;
44048;SDS011;29717;47.028;15.470;2024-03-02T03:54:02;51.92;;;33.45;;
44048;SDS011;29717;47.028;15.470;2024-03-02T03:56:29;49.55;;;34.38;;
44048;SDS011;29717;47.028;15.470;2024-03-02T03:58:56;50.13;;;32.83;;
44048;SDS011;29717;47.028;15.470;2024-03-02T04:01:22;50.95;;;33.88;;
44048;SDS011;29717;47.028;15.470;2024-03-02T04:03:49;46.80;;;31.98;;
44048;SDS011;29717;47.028;15.470;2024-03-02T04:06:16;48.60;;;32.97;;
44048;SDS011;29717;47.028;15.470;2024-03-02T04:08:44;48.53;;;32.58;;
44048;SDS011;29717;47.028;15.470;2024-03-02T04:11:10;47.10;;;32.65;;
44048;SDS011;29717;47.028;15.470;2024-03-02T04:13:37;45.17;;;31.58;;
44048;SDS011;29717;47.028;15.470;2024-03-02T04:16:04;48.65;;;32.33;;
44048;SDS011;29717;47.028;15.470;2024-03-02T04:18:31;47.72;;;31.70;;
44048;SDS011;29717;47.028;15.470;2024-03-02T04:20:58;50.22;;;32.88;;
44048;SDS011;29717;47.028;15.470;2024-03-02T04:23:26;48.90;;;32.35;;
44048;SDS011;29717;47.028;15.470;2024-03-02T04:25:54;47.38;;;32.78;;
44048;SDS011;29717;47.028;15.470;2024-03-02T04:28:20;49.50;;;33.83;;
44048;SDS011;29717;47.028;15.470;2024-03-02T04:30:47;45.30;;;31.40;;
44048;SDS011;29717;47.028;15.470;2024-03-02T04:33:14;47.13;;;31.73;;
44048;SDS011;29717;47.028;15.470;2024-03-02T04:35:40;49.30;;;31.33;;
44048;SDS011;29717;47.028;15.470;2024-03-02T04:38:07;49.55;;;31.75;;
44048;SDS011;29717;47.028;15.470;2024-03-02T04:40:34;49.05;;;31.42;;
44048;SDS011;29717;47.028;15.470;2024-03-02T04:43:02;48.53;;;32.22;;
44048;SDS011;29717;47.028;15.470;2024-03-02T04:45:29;46.08;;;31.08;;
44048;SDS011;29717;47.028;15.470;2024-03-02T04:47:55;46.90;;;31.48;;
44048;SDS011;29717;47.028;15.470;2024-03-02T04:50:22;47.55;;;30.60;;
44048;SDS011;29717;47.028;15.470;2024-03-02T04:52:49;42.47;;;30.23;;
44048;SDS011;29717;47.028;15.470;2024-03-02T04:55:15;42.33;;;29.95;;
44048;SDS011;29717;47.028;15.470;2024-03-02T04:58:17;44.78;;;29.75;;
44048;SDS011;29717;47.028;15.470;2024-03-02T05:00:43;45.45;;;30.50;;
44048;SDS011;29717;47.028;15.470;2024-03-02T05:03:11;45.42;;;30.17;;
44048;SDS011;29717;47.028;15.470;2024-03-02T05:05:38;42.10;;;29.00;;
44048;SDS011;29717;47.028;15.470;2024-03-02T05:08:05;46.30;;;30.30;;
44048;SDS011;29717;47.028;15.470;2024-03-02T05:10:31;46.38;;;30.77;;
44048;SDS011;29717;47.028;15.470;2024-03-02T05:12:58;47.85;;;31.67;;
44048;SDS011;29717;47.028;15.470;2024-03-02T05:15:26;46.88;;;31.15;;
44048;SDS011;29717;47.028;15.470;2024-03-02T05:17:52;46.50;;;31.75;;
44048;SDS011;29717;47.028;15.470;2024-03-02T05:20:19;49.53;;;32.70;;
44048;SDS011;29717;47.028;15.470;2024-03-02T05:22:46;45.08;;;31.67;;
44048;SDS011;29717;47.028;15.470;2024-03-02T05:25:13;46.63;;;31.25;;
44048;SDS011;29717;47.028;15.470;2024-03-02T05:27:40;46.00;;;30.38;;
44048;SDS011;29717;47.028;15.470;2024-03-02T05:30:08;47.05;;;30.85;;
44048;SDS011;29717;47.028;15.470;2024-03-02T05:32:36;50.60;;;32.45;;
44048;SDS011;29717;47.028;15.470;2024-03-02T05:35:03;50.08;;;32.20;;
44048;SDS011;29717;47.028;15.470;2024-03-02T05:37:30;47.13;;;31.75;;
44048;SDS011;29717;47.028;15.470;2024-03-02T05:39:57;45.85;;;31.30;;
44048;SDS011;29717;47.028;15.470;2024-03-02T05:42:24;45.67;;;30.90;;
44048;SDS011;29717;47.028;15.470;2024-03-02T05:44:52;41.60;;;29.30;;
44048;SDS011;29717;47.028;15.470;2024-03-02T05:47:19;45.72;;;30.63;;
44048;SDS011;29717;47.028;15.470;2024-03-02T05:49:47;46.08;;;31.48;;
44048;SDS011;29717;47.028;15.470;2024-03-02T05:52:14;43.22;;;29.10;;
44048;SDS011;29717;47.028;15.470;2024-03-02T05:54:40;42.55;;;28.40;;
44048;SDS011;29717;47.028;15.470;2024-03-02T05:57:07;43.47;;;29.08;;
44048;SDS011;29717;47.028;15.470;2024-03-02T05:59:57;44.95;;;28.90;;
44048;SDS011;29717;47.028;15.470;2024-03-02T06:02:24;40.85;;;27.73;;
44048;SDS011;29717;47.028;15.470;2024-03-02T06:04:52;43.80;;;29.27;;
44048;SDS011;29717;47.028;15.470;2024-03-02T06:07:19;43.67;;;27.63;;
44048;SDS011;29717;47.028;15.470;2024-03-02T06:09:46;41.00;;;28.10;;
44048;SDS011;29717;47.028;15.470;2024-03-02T06:12:15;42.92;;;28.30;;
44048;SDS011;29717;47.028;15.470;2024-03-02T06:14:43;39.80;;;27.75;;
44048;SDS011;29717;47.028;15.470;2024-03-02T06:17:09;41.50;;;28.02;;
44048;SDS011;29717;47.028;15.470;2024-03-02T06:19:36;41.67;;;28.27;;
44048;SDS011;29717;47.028;15.470;2024-03-02T06:22:04;42.72;;;27.80;;
44048;SDS011;29717;47.028;15.470;2024-03-02T06:24:31;45.13;;;29.27;;
44048;SDS011;29717;47.028;15.470;2024-03-02T06:26:58;45.05;;;28.02;;
44048;SDS011;29717;47.028;15.470;2024-03-02T06:29:24;40.55;;;28.10;;
44048;SDS011;29717;47.028;15.470;2024-03-02T06:31:51;43.03;;;28.55;;
44048;SDS011;29717;47.028;15.470;2024-03-02T06:34:18;41.33;;;27.60;;
44048;SDS011;29717;47.028;15.470;2024-03-02T06:36:44;38.45;;;26.92;;
44048;SDS011;29717;47.028;15.470;2024-03-02T06:39:13;35.92;;;25.83;;
44048;SDS011;29717;47.028;15.470;2024-03-02T06:41:39;37.78;;;26.65;;
44048;SDS011;29717;47.028;15.470;2024-03-02T06:44:07;37.35;;;26.38;;
44048;SDS011;29717;47.028;15.470;2024-03-02T06:46:34;52.17;;;44.55;;
44048;SDS011;29717;47.028;15.470;2024-03-02T06:49:01;37.53;;;27.55;;
44048;SDS011;29717;47.028;15.470;2024-03-02T06:51:29;40.08;;;27.52;;
44048;SDS011;29717;47.028;15.470;2024-03-02T06:53:56;38.30;;;26.30;;
44048;SDS011;29717;47.028;15.470;2024-03-02T06:56:24;39.15;;;26.85;;
44048;SDS011;29717;47.028;15.470;2024-03-02T06:58:50;39.03;;;26.25;;
44048;SDS011;29717;47.028;15.470;2024-03-02T07:01:17;35.33;;;25.35;;
44048;SDS011;29717;47.028;15.470;2024-03-02T07:03:45;35.33;;;24.63;;
44048;SDS011;29717;47.028;15.470;2024-03-02T07:06:12;35.25;;;24.70;;
44048;SDS011;29717;47.028;15.470;2024-03-02T07:08:38;33.60;;;24.23;;
44048;SDS011;29717;47.028;15.470;2024-03-02T07:11:05;35.40;;;24.60;;
44048;SDS011;29717;47.028;15.470;2024-03-02T07:13:34;33.72;;;23.55;;
44048;SDS011;29717;47.028;15.470;2024-03-02T07:16:01;36.45;;;24.38;;
44048;SDS011;29717;47.028;15.470;2024-03-02T07:18:52;33.90;;;24.38;;
44048;SDS011;29717;47.028;15.470;2024-03-02T07:21:20;37.03;;;25.05;;
44048;SDS011;29717;47.028;15.470;2024-03-02T07:23:48;34.47;;;24.65;;
44048;SDS011;29717;47.028;15.470;2024-03-02T07:26:15;35.90;;;24.50;;
44048;SDS011;29717;47.028;15.470;2024-03-02T07:28:45;37.80;;;24.80;;
44048;SDS011;29717;47.028;15.470;2024-03-02T07:31:13;31.23;;;23.35;;
44048;SDS011;29717;47.028;15.470;2024-03-02T07:33:40;32.30;;;23.40;;
44048;SDS011;29717;47.028;15.470;2024-03-02T07:36:07;29.15;;;22.27;;
44048;SDS011;29717;47.028;15.470;2024-03-02T07:38:34;32.03;;;23.25;;
44048;SDS011;29717;47.028;15.470;2024-03-02T07:41:01;35.25;;;23.73;;
44048;SDS011;29717;47.028;15.470;2024-03-02T07:43:28;32.97;;;23.85;;
44048;SDS011;29717;47.028;15.470;2024-03-02T07:45:56;32.85;;;23.80;;
44048;SDS011;29717;47.028;15.470;2024-03-02T07:48:23;33.03;;;22.92;;
44048;SDS011;29717;47.028;15.470;2024-03-02T07:50:50;30.67;;;23.20;;
44048;SDS011;29717;47.028;15.470;2024-03-02T07:53:17;31.13;;;23.05;;
44048;SDS011;29717;47.028;15.470;2024-03-02T07:55:43;31.50;;;23.83;;
44048;SDS011;29717;47.028;15.470;2024-03-02T07:58:10;31.05;;;23.38;;
44048;SDS011;29717;47.028;15.470;2024-03-02T08:00:38;33.28;;;23.73;;
44048;SDS011;29717;47.028;15.470;2024-03-02T08:03:06;34.78;;;24.23;;
44048;SDS011;29717;47.028;15.470;2024-03-02T08:05:36;28.95;;;22.67;;
44048;SDS011;29717;47.028;15.470;2024-03-02T08:08:03;29.67;;;23.60;;
44048;SDS011;29717;47.028;15.470;2024-03-02T08:10:31;31.98;;;22.80;;
44048;SDS011;29717;47.028;15.470;2024-03-02T08:12:59;31.02;;;22.92;;
44048;SDS011;29717;47.028;15.470;2024-03-02T08:15:25;31.88;;;24.20;;
44048;SDS011;29717;47.028;15.470;2024-03-02T08:17:52;30.55;;;23.25;;
44048;SDS011;29717;47.028;15.470;2024-03-02T08:20:20;30.25;;;23.25;;
44048;SDS011;29717;47.028;15.470;2024-03-02T08:22:47;31.63;;;21.88;;
44048;SDS011;29717;47.028;15.470;2024-03-02T08:25:14;29.95;;;22.65;;
44048;SDS011;29717;47.028;15.470;2024-03-02T08:27:41;25.88;;;20.17;;
44048;SDS011;29717;47.028;15.470;2024-03-02T08:30:08;27.73;;;20.60;;
44048;SDS011;29717;47.028;15.470;2024-03-02T08:32:35;25.70;;;19.92;;
44048;SDS011;29717;47.028;15.470;2024-03-02T08:35:03;24.33;;;19.75;;
44048;SDS011;29717;47.028;15.470;2024-03-02T08:37:31;26.13;;;19.23;;
44048;SDS011;29717;47.028;15.470;2024-03-02T08:39:58;24.40;;;20.13;;
44048;SDS011;29717;47.028;15.470;2024-03-02T08:42:25;24.25;;;19.85;;
44048;SDS011;29717;47.028;15.470;2024-03-02T08:44:52;24.05;;;19.25;;
44048;SDS011;29717;47.028;15.470;2024-03-02T08:47:18;21.75;;;18.48;;
44048;SDS011;29717;47.028;15.470;2024-03-02T08:49:45;24.00;;;18.60;;
44048;SDS011;29717;47.028;15.470;2024-03-02T08:52:12;23.38;;;18.98;;
44048;SDS011;29717;47.028;15.470;2024-03-02T08:54:40;23.08;;;18.15;;
44048;SDS011;29717;47.028;15.470;2024-03-02T08:57:07;23.15;;;18.55;;
44048;SDS011;29717;47.028;15.470;2024-03-02T08:59:34;25.58;;;19.25;;
44048;SDS011;29717;47.028;15.470;2024-03-02T09:02:01;24.30;;;19.67;;
44048;SDS011;29717;47.028;15.470;2024-03-02T09:04:28;23.63;;;19.48;;
44048;SDS011;29717;47.028;15.470;2024-03-02T09:06:55;26.08;;;19.23;;
44048;SDS011;29717;47.028;15.470;2024-03-02T09:09:21;23.15;;;18.55;;
44048;SDS011;29717;47.028;15.470;2024-03-02T09:11:50;23.75;;;20.02;;
44048;SDS011;29717;47.028;15.470;2024-03-02T09:14:16;23.52;;;18.35;;
44048;SDS011;29717;47.028;15.470;2024-03-02T09:16:43;24.65;;;19.10;;
44048;SDS011;29717;47.028;15.470;2024-03-02T09:19:10;23.83;;;18.92;;
44048;SDS011;29717;47.028;15.470;2024-03-02T09:21:37;20.33;;;18.17;;
44048;SDS011;29717;47.028;15.470;2024-03-02T09:24:04;24.63;;;18.58;;
44048;SDS011;29717;47.028;15.470;2024-03-02T09:26:32;21.15;;;17.67;;
44048;SDS011;29717;47.028;15.470;2024-03-02T09:29:00;21.42;;;17.55;;
44048;SDS011;29717;47.028;15.470;2024-03-02T09:31:26;28.20;;;17.92;;
44048;SDS011;29717;47.028;15.470;2024-03-02T09:33:53;24.50;;;18.92;;
44048;SDS011;29717;47.028;15.470;2024-03-02T09:36:20;22.10;;;18.23;;
44048;SDS011;29717;47.028;15.470;2024-03-02T09:38:47;21.50;;;17.52;;
44048;SDS011;29717;47.028;15.470;2024-03-02T09:41:14;24.25;;;18.08;;
44048;SDS011;29717;47.028;15.470;2024-03-02T09:43:41;19.45;;;16.73;;
44048;SDS011;29717;47.028;15.470;2024-03-02T09:46:10;21.00;;;17.85;;
44048;SDS011;29717;47.028;15.470;2024-03-02T09:48:37;23.30;;;17.75;;
44048;SDS011;29717;47.028;15.470;2024-03-02T09:51:04;21.33;;;17.67;;
44048;SDS011;29717;47.028;15.470;2024-03-02T09:53:31;21.25;;;17.90;;
44048;SDS011;29717;47.028;15.470;2024-03-02T09:55:58;24.20;;;18.75;;
44048;SDS011;29717;47.028;15.470;2024-03-02T09:58:26;23.27;;;18.35;;
44048;SDS011;29717;47.028;15.470;2024-03-02T10:00:52;22.10;;;18.17;;
44048;SDS011;29717;47.028;15.470;2024-03-02T10:03:21;20.10;;;17.70;;
44048;SDS011;29717;47.028;15.470;2024-03-02T10:05:49;19.40;;;16.08;;
44048;SDS011;29717;47.028;15.470;2024-03-02T10:08:17;22.52;;;16.98;;
44048;SDS011;29717;47.028;15.470;2024-03-02T10:10:44;20.17;;;16.30;;
44048;SDS011;29717;47.028;15.470;2024-03-02T10:13:11;18.13;;;16.23;;
44048;SDS011;29717;47.028;15.470;2024-03-02T10:15:38;19.80;;;16.23;;
44048;SDS011;29717;47.028;15.470;2024-03-02T10:18:08;22.25;;;17.23;;
44048;SDS011;29717;47.028;15.470;2024-03-02T10:20:37;17.20;;;15.10;;
44048;SDS011;29717;47.028;15.470;2024-03-02T10:23:10;16.15;;;14.27;;
44048;SDS011;29717;47.028;15.470;2024-03-02T10:25:37;20.30;;;15.52;;
44048;SDS011;29717;47.028;15.470;2024-03-02T10:28:04;16.77;;;14.85;;
44048;SDS011;29717;47.028;15.470;2024-03-02T10:30:32;16.70;;;14.50;;
44048;SDS011;29717;47.028;15.470;2024-03-02T10:32:58;15.80;;;12.90;;
44048;SDS011;29717;47.028;15.470;2024-03-02T10:35:26;19.70;;;13.85;;
44048;SDS011;29717;47.028;15.470;2024-03-02T10:37:54;17.10;;;13.80;;
44048;SDS011;29717;47.028;15.470;2024-03-02T10:40:21;15.38;;;13.73;;
44048;SDS011;29717;47.028;15.470;2024-03-02T10:42:49;15.35;;;13.40;;
44048;SDS011;29717;47.028;15.470;2024-03-02T10:45:16;16.33;;;12.88;;
44048;SDS011;29717;47.028;15.470;2024-03-02T10:47:43;16.83;;;14.40;;
44048;SDS011;29717;47.028;15.470;2024-03-02T10:50:09;14.32;;;12.95;;
44048;SDS011;29717;47.028;15.470;2024-03-02T10:52:36;14.35;;;11.90;;
44048;SDS011;29717;47.028;15.470;2024-03-02T10:55:06;16.65;;;12.77;;
44048;SDS011;29717;47.028;15.470;2024-03-02T10:57:37;14.55;;;12.70;;
44048;SDS011;29717;47.028;15.470;2024-03-02T11:00:06;13.10;;;11.75;;
44048;SDS011;29717;47.028;15.470;2024-03-02T11:02:41;16.55;;;13.45;;
44048;SDS011;29717;47.028;15.470;2024-03-02T11:05:09;13.75;;;12.35;;
44048;SDS011;29717;47.028;15.470;2024-03-02T11:07:37;15.38;;;11.95;;
44048;SDS011;29717;47.028;15.470;2024-03-02T11:10:06;14.38;;;11.70;;
44048;SDS011;29717;47.028;15.470;2024-03-02T11:12:36;15.02;;;12.00;;
44048;SDS011;29717;47.028;15.470;2024-03-02T11:15:06;14.20;;;11.85;;
44048;SDS011;29717;47.028;15.470;2024-03-02T11:17:35;12.63;;;11.30;;
44048;SDS011;29717;47.028;15.470;2024-03-02T11:20:03;11.70;;;10.48;;
44048;SDS011;29717;47.028;15.470;2024-03-02T11:22:35;11.95;;;10.65;;
44048;SDS011;29717;47.028;15.470;2024-03-02T11:25:03;12.88;;;9.75;;
44048;SDS011;29717;47.028;15.470;2024-03-02T11:30:27;11.27;;;7.88;;
44048;SDS011;29717;47.028;15.470;2024-03-02T11:33:14;11.63;;;9.35;;
44048;SDS011;29717;47.028;15.470;2024-03-02T11:35:42;14.43;;;10.20;;
44048;SDS011;29717;47.028;15.470;2024-03-02T11:38:11;12.25;;;10.60;;
44048;SDS011;29717;47.028;15.470;2024-03-02T11:40:38;10.35;;;9.30;;
44048;SDS011;29717;47.028;15.470;2024-03-02T11:43:05;13.85;;;9.52;;
44048;SDS011;29717;47.028;15.470;2024-03-02T11:45:35;10.55;;;9.43;;
44048;SDS011;29717;47.028;15.470;2024-03-02T11:48:05;11.68;;;8.55;;
44048;SDS011;29717;47.028;15.470;2024-03-02T11:50:33;10.88;;;8.32;;
44048;SDS011;29717;47.028;15.470;2024-03-02T11:53:00;8.98;;;7.95;;
44048;SDS011;29717;47.028;15.470;2024-03-02T11:55:27;11.88;;;7.40;;
44048;SDS011;29717;47.028;15.470;2024-03-02T11:57:54;12.82;;;8.07;;
44048;SDS011;29717;47.028;15.470;2024-03-02T12:00:21;10.35;;;8.48;;
44048;SDS011;29717;47.028;15.470;2024-03-02T12:02:59;11.05;;;7.75;;
44048;SDS011;29717;47.028;15.470;2024-03-02T12:05:26;8.95;;;7.28;;
44048;SDS011;29717;47.028;15.470;2024-03-02T12:07:55;9.27;;;6.30;;
44048;SDS011;29717;47.028;15.470;2024-03-02T12:10:22;7.82;;;6.55;;
44048;SDS011;29717;47.028;15.470;2024-03-02T12:12:54;7.03;;;6.32;;
44048;SDS011;29717;47.028;15.470;2024-03-02T12:15:22;12.52;;;7.72;;
44048;SDS011;29717;47.028;15.470;2024-03-02T12:17:53;9.98;;;7.15;;
44048;SDS011;29717;47.028;15.470;2024-03-02T12:20:21;13.30;;;7.80;;
44048;SDS011;29717;47.028;15.470;2024-03-02T12:22:49;9.77;;;7.40;;
44048;SDS011;29717;47.028;15.470;2024-03-02T12:25:16;9.40;;;6.72;;
44048;SDS011;29717;47.028;15.470;2024-03-02T12:27:43;8.38;;;6.43;;
44048;SDS011;29717;47.028;15.470;2024-03-02T12:30:11;9.95;;;6.57;;
44048;SDS011;29717;47.028;15.470;2024-03-02T12:32:39;8.35;;;6.40;;
44048;SDS011;29717;47.028;15.470;2024-03-02T12:35:08;9.70;;;6.50;;
44048;SDS011;29717;47.028;15.470;2024-03-02T12:37:42;12.75;;;5.70;;
44048;SDS011;29717;47.028;15.470;2024-03-02T12:40:10;7.05;;;5.55;;
44048;SDS011;29717;47.028;15.470;2024-03-02T12:42:36;5.78;;;5.00;;
44048;SDS011;29717;47.028;15.470;2024-03-02T12:45:04;6.68;;;5.38;;
44048;SDS011;29717;47.028;15.470;2024-03-02T12:47:31;7.45;;;5.78;;
44048;SDS011;29717;47.028;15.470;2024-03-02T12:49:58;8.93;;;6.00;;
44048;SDS011;29717;47.028;15.470;2024-03-02T12:52:26;7.68;;;5.60;;
44048;SDS011;29717;47.028;15.470;2024-03-02T12:54:53;8.95;;;5.32;;
44048;SDS011;29717;47.028;15.470;2024-03-02T12:57:24;8.30;;;5.65;;
44048;SDS011;29717;47.028;15.470;2024-03-02T12:59:51;7.82;;;5.75;;
44048;SDS011;29717;47.028;15.470;2024-03-02T13:02:19;7.70;;;5.30;;
44048;SDS011;29717;47.028;15.470;2024-03-02T13:04:52;6.43;;;5.05;;
44048;SDS011;29717;47.028;15.470;2024-03-02T13:07:19;7.03;;;5.13;;
44048;SDS011;29717;47.028;15.470;2024-03-02T13:09:49;6.22;;;5.15;;
44048;SDS011;29717;47.028;15.470;2024-03-02T13:12:16;7.00;;;5.80;;
44048;SDS011;29717;47.028;15.470;2024-03-02T13:14:43;8.38;;;6.03;;
44048;SDS011;29717;47.028;15.470;2024-03-02T13:17:10;8.55;;;6.65;;
44048;SDS011;29717;47.028;15.470;2024-03-02T13:19:43;11.05;;;6.53;;
44048;SDS011;29717;47.028;15.470;2024-03-02T13:22:09;9.48;;;6.72;;
44048;SDS011;29717;47.028;15.470;2024-03-02T13:24:36;7.40;;;6.57;;
44048;SDS011;29717;47.028;15.470;2024-03-02T13:27:04;8.07;;;7.05;;
44048;SDS011;29717;47.028;15.470;2024-03-02T13:29:31;8.20;;;7.13;;
44048;SDS011;29717;47.028;15.470;2024-03-02T13:31:59;8.48;;;7.22;;
44048;SDS011;29717;47.028;15.470;2024-03-02T13:34:25;11.38;;;6.88;;
44048;SDS011;29717;47.028;15.470;2024-03-02T13:36:52;9.27;;;6.95;;
44048;SDS011;29717;47.028;15.470;2024-03-02T13:39:19;9.25;;;6.82;;
44048;SDS011;29717;47.028;15.470;2024-03-02T13:41:45;8.23;;;6.97;;
44048;SDS011;29717;47.028;15.470;2024-03-02T13:44:19;8.35;;;6.72;;
44048;SDS011;29717;47.028;15.470;2024-03-02T13:46:46;8.10;;;6.93;;
44048;SDS011;29717;47.028;15.470;2024-03-02T13:49:13;11.60;;;8.10;;
44048;SDS011;29717;47.028;15.470;2024-03-02T13:51:40;8.27;;;7.35;;
44048;SDS011;29717;47.028;15.470;2024-03-02T13:54:07;8.50;;;6.20;;
44048;SDS011;29717;47.028;15.470;2024-03-02T13:56:34;10.88;;;8.45;;
44048;SDS011;29717;47.028;15.470;2024-03-02T13:59:00;11.20;;;8.13;;
44048;SDS011;29717;47.028;15.470;2024-03-02T14:01:29;10.05;;;7.82;;
44048;SDS011;29717;47.028;15.470;2024-03-02T14:03:55;9.93;;;7.53;;
44048;SDS011;29717;47.028;15.470;2024-03-02T14:06:23;11.10;;;8.50;;
44048;SDS011;29717;47.028;15.470;2024-03-02T14:08:52;10.25;;;8.40;;
44048;SDS011;29717;47.028;15.470;2024-03-02T14:11:18;14.15;;;9.85;;
44048;SDS011;29717;47.028;15.470;2024-03-02T14:13:45;18.08;;;11.27;;
44048;SDS011;29717;47.028;15.470;2024-03-02T14:16:15;14.10;;;11.00;;
44048;SDS011;29717;47.028;15.470;2024-03-02T14:18:43;16.27;;;11.80;;
44048;SDS011;29717;47.028;15.470;2024-03-02T14:21:09;14.38;;;10.35;;